International Falls, MN

9:40 PM CDT on August 01, 2014 (GMT -0500)
Wayside Lane (KMNINTER4) Elev 1115 ft | 48.60 °N, 93.42 °W | Change Station

Current weather conditions updated 2 minutes ago

Clear
Clear
63.7 °F
Feels Like 63.7 °F
N
0.0
Wind Variable Wind from ENE
Gusts 0.0 mph

Tomorrow is forecast to be nearly the same temperature as today. Partly cloudy with a stray thunderstorm.

Today
High -- | Low -- °F
--% Chance of Precip.
Yesterday
High -- | Low -- °F
Precip. -- in
5:47 AM 8:51 PM
Waxing Crescent, 31% visible
Pressure 30.07 in
Visibility 10.0 miles
Clouds Clear
Dew Point 56 °F
Humidity 76%
Rainfall 0.00 in
Snow Depth Not available.
UV 0 out of 12
Pollen 6.60 out of 12
Air Quality Not available.
Flu Activity Not available.
METAR KINL 020155Z AUTO 00000KT 10SM CLR 14/13 A3006 RMK AO2 SLP182 T01440133

More Conditions Fewer Conditions

Pressure 30.07 in
Visibility 10.0 miles
Clouds Clear
Dew Point 56 °F
Humidity 76%
Rainfall 0.00 in
Snow Depth Not available.
UV 0 out of 12
Pollen 6.60 out of 12
Air Quality Not available.
Flu Activity Not available.
METAR KINL 020155Z AUTO 00000KT 10SM CLR 14/13 A3006 RMK AO2 SLP182 T01440133

More Conditions Fewer Conditions

10-Day Weather Forecast

Almanac

Astronomy

Aug. 01, 2014 Rise Set
Actual Time 5:47 AM CDT 8:51 PM CDT
Civil Twilight 5:10 AM CDT 9:27 PM CDT
Nautical Twilight 4:22 AM CDT 10:15 PM CDT
Astronomical Twilight 3:23 AM CDT 11:14 PM CDT
Moon 11:43 AM CDT (8/1) 11:03 PM CDT (8/1)
Length of Visible Light 16h 17m
Length of Day
15h 03m
Tomorrow will be 2m 49s shorter.
Waxing Crescent, 31% of the Moon is Illuminated
Today
Waxing Crescent
Aug 3
First Quarter
Aug 10
Full
Aug 17
Last Quarter
Aug 25
New

Today's Extremes

State Highs State Lows

Community

WunderPhotos

Upload Photos

1,739,813 photos uploaded!

Nearby

Snow Depth

Station Depth Elevation
No new snow has been reported.

Earthquake Activity

City Distance Mag. Time & Date
No recent earthquake activity has been reported nearby.
Minimum magnitude displayed is 2.5.

Coastal Water Temperatures

Place Temperature
No Stations Reporting

Nearby Weather Stations

Station Location Temp. Dew Point Humidity Wind Precip. Elev Updated Type
Wayside Lane, International Falls, MN 63.7 °F 56 °F 76% ENE  at  0.0 mph 0.00 in / hr 1115 ft 9:37 PM CDT Normal
Rainy Lake, Fort Frances 66.4 °F 55 °F 67% ENE  at  0.0 mph 0.00 in / hr 1140 ft 9:40 PM CDT Rapid Fire
Crabtree Blvd, International Falls, MN 65.2 °F 60 °F 84% East  at  0.0 mph - / hr 1122 ft 9:40 PM CDT Rapid Fire
LaVallee, Devlin 56.1 °F 52 °F 87% North  at  0.0 mph 0.00 in / hr 1142 ft 9:39 PM CDT Normal
HADS LITTLEFORK RIVER NEAR LITTLEFORK MN, Littlefork, MN 69 °F - - North  at  - 0.00 in / hr 1125 ft 8:30 PM CDT MADIS
RAWS KABNAM MN, Ray, MN 65 °F 60 °F 85% North  at  0 mph 0.00 in / hr 1200 ft 8:31 PM CDT MADIS

Show More Stations Show Fewer Stations